Webster, Iowa
Current Conditions -  °F | °C
As of 2:35 AM on Friday 28 Nov 2014 (Local Time) from KOOA Reporting Station
Broken Clouds Broken Clouds  
Wind Chill:   Ceiling: 12000
Heat Index: 15°   Visibility: 10mi
Dew Point:   Wind: 14mph
Humidity: 79%   Direction: 130°SE
Pressure: 30.22"   Gusts: NA
Location:  41.44°N, 92.17°W
Report Text: KOOA 280835Z AUTO 13012KT 10SM BKN120 M10/M13 A3022 RMK AO2 T10961127
Loading
Personal Weather Stations






























Interactive Weather Map New forecast layout! Learn more

10-Day Weather Forecast

Advertisements
Track Severe Weather on mobile